Time;durP1;ratioP1;P1;durP2;ratioP2;P2;SDS_P1;SDS_P2;PMS_P1;PMS_P2;Temp;Humidity;BMP_temperature;BMP_pressure;BME280_temperature;BME280_humidity;BME280_pressure;Samples;Min_cycle;Max_cycle;Signal;HPM_P1;HPM_P2
2023/06/05 00:00:12;;;;;;;9.20;7.53;;;;;;;15.21;100.00;95095.59;5072736;28;20197;-45
2023/06/05 00:02:39;;;;;;;9.70;7.50;;;;;;;15.22;100.00;95102.34;5071996;28;20246;-45
2023/06/05 00:05:08;;;;;;;7.40;6.70;;;;;;;15.20;100.00;95097.34;5071670;28;20228;-44
2023/06/05 00:07:37;;;;;;;8.67;7.87;;;;;;;15.18;100.00;95096.69;5072056;28;20193;-45
2023/06/05 00:10:06;;;;;;;11.70;7.83;;;;;;;15.15;100.00;95091.84;5071429;28;20190;-46
2023/06/05 00:12:33;;;;;;;9.67;7.90;;;;;;;15.16;100.00;95097.81;5071433;28;20222;-44
2023/06/05 00:15:01;;;;;;;8.43;6.83;;;;;;;15.10;100.00;95086.34;5071735;28;20630;-45
2023/06/05 00:17:28;;;;;;;8.57;7.10;;;;;;;15.23;100.00;95102.19;5070850;28;20269;-42
2023/06/05 00:19:55;;;;;;;8.80;8.00;;;;;;;15.22;100.00;95100.56;5071193;28;20202;-47
2023/06/05 00:22:22;;;;;;;8.83;6.87;;;;;;;15.18;100.00;95099.25;5071330;28;20549;-44
2023/06/05 00:24:49;;;;;;;7.40;6.70;;;;;;;15.14;100.00;95090.22;5071310;28;20186;-45
2023/06/05 00:27:17;;;;;;;8.00;7.13;;;;;;;15.12;100.00;95091.38;5071386;28;20194;-45
2023/06/05 00:29:44;;;;;;;9.17;8.20;;;;;;;15.12;100.00;95096.53;5071276;28;20299;-45
2023/06/05 00:32:11;;;;;;;8.30;7.50;;;;;;;15.09;100.00;95100.19;5070398;28;20201;-45
2023/06/05 00:34:37;;;;;;;9.20;7.70;;;;;;;15.08;100.00;95097.78;5071107;28;20967;-46
2023/06/05 00:37:05;;;;;;;8.57;7.67;;;;;;;15.05;100.00;95102.28;5071171;28;20206;-46
2023/06/05 00:39:31;;;;;;;8.53;7.63;;;;;;;15.05;100.00;95101.47;5070721;28;20189;-45
2023/06/05 00:41:58;;;;;;;9.93;8.03;;;;;;;15.07;100.00;95109.88;5070582;28;20205;-44
2023/06/05 00:44:26;;;;;;;8.20;7.50;;;;;;;15.07;100.00;95099.56;5070981;28;20190;-46
2023/06/05 00:46:53;;;;;;;9.83;8.57;;;;;;;15.07;100.00;95097.00;5071142;28;20260;-44
2023/06/05 00:49:21;;;;;;;8.73;7.93;;;;;;;15.08;100.00;95096.03;5071578;28;20183;-45
2023/06/05 00:51:48;;;;;;;9.33;8.33;;;;;;;15.10;100.00;95088.13;5070763;28;20266;-46
2023/06/05 00:54:15;;;;;;;11.87;8.23;;;;;;;15.12;100.00;95087.03;5070487;28;20673;-46
2023/06/05 00:56:44;;;;;;;9.47;8.47;;;;;;;15.13;100.00;95085.25;5069551;28;20210;-47
2023/06/05 00:59:13;;;;;;;8.37;7.57;;;;;;;15.11;100.00;95090.56;5070678;28;20268;-47
2023/06/05 01:01:42;;;;;;;9.93;8.27;;;;;;;15.11;100.00;95088.00;5070997;28;20199;-46
2023/06/05 01:04:09;;;;;;;9.80;8.50;;;;;;;15.11;100.00;95084.59;5069468;28;20657;-45
2023/06/05 01:06:40;;;;;;;9.07;8.13;;;;;;;15.08;100.00;95080.56;5070404;28;20691;-45
2023/06/05 01:09:08;;;;;;;9.13;8.33;;;;;;;15.11;100.00;95071.69;5070515;28;20198;-43
2023/06/05 01:11:41;;;;;;;8.30;7.50;;;;;;;15.09;100.00;95065.91;5070689;28;20187;-45
2023/06/05 01:14:17;;;;;;;13.83;8.43;;;;;;;15.15;100.00;95068.66;5069506;28;20233;-45
2023/06/05 01:16:49;;;;;;;10.13;8.80;;;;;;;15.11;100.00;95066.53;5050372;28;20233;-46
2023/06/05 01:19:16;;;;;;;9.50;8.53;;;;;;;14.98;100.00;95052.38;5050208;28;20194;-46
2023/06/05 01:21:44;;;;;;;9.07;7.97;;;;;;;15.11;100.00;95069.13;5055860;28;20255;-45
2023/06/05 01:24:15;;;;;;;10.03;8.23;;;;;;;15.08;100.00;95067.69;5069796;28;20198;-44
2023/06/05 01:26:53;;;;;;;12.23;8.43;;;;;;;15.06;100.00;95061.88;5068801;28;20213;-44
2023/06/05 01:29:25;;;;;;;8.87;7.80;;;;;;;15.02;100.00;95053.63;5069778;28;20241;-46
2023/06/05 01:31:57;;;;;;;11.77;7.53;;;;;;;15.02;100.00;95060.56;5070295;28;20191;-46
2023/06/05 01:34:26;;;;;;;9.77;8.20;;;;;;;14.99;100.00;95055.75;5069386;28;20304;-43
2023/06/05 01:36:57;;;;;;;11.30;8.90;;;;;;;14.97;100.00;95049.94;5069857;28;20194;-46
2023/06/05 01:39:27;;;;;;;12.17;8.67;;;;;;;14.96;100.00;95046.53;5069344;28;20194;-47
2023/06/05 01:41:56;;;;;;;13.13;9.37;;;;;;;14.82;100.00;95033.47;5070329;28;20539;-47
2023/06/05 01:44:24;;;;;;;10.43;9.13;;;;;;;14.90;100.00;95049.75;5069564;28;20208;-46
2023/06/05 01:46:52;;;;;;;11.37;8.77;;;;;;;14.83;100.00;95029.94;5067236;28;20573;-45
2023/06/05 01:49:20;;;;;;;10.47;9.07;;;;;;;14.96;100.00;95054.28;5067732;28;20232;-45
2023/06/05 01:51:47;;;;;;;11.47;9.27;;;;;;;14.96;100.00;95054.28;5070247;28;20190;-44
2023/06/05 01:54:15;;;;;;;11.30;9.03;;;;;;;14.96;100.00;95054.28;5068931;28;20673;-45
2023/06/05 01:56:43;;;;;;;13.73;9.33;;;;;;;14.93;100.00;95053.78;5069376;28;20191;-45
2023/06/05 01:59:10;;;;;;;10.00;8.93;;;;;;;14.95;100.00;95057.81;5069768;28;20285;-46
2023/06/05 02:01:37;;;;;;;10.87;8.97;;;;;;;14.92;100.00;95050.41;5072077;28;20194;-47
2023/06/05 02:04:05;;;;;;;13.07;9.10;;;;;;;14.91;100.00;95051.38;5072173;28;20642;-44
2023/06/05 02:06:43;;;;;;;9.90;8.90;;;;;;;14.89;100.00;95050.69;5069835;28;20189;-45
2023/06/05 02:09:12;;;;;;;10.20;9.20;;;;;;;14.87;100.00;95054.41;5067611;28;20201;-45
2023/06/05 02:11:42;;;;;;;11.70;9.57;;;;;;;14.86;100.00;95053.59;5069479;28;20194;-44
2023/06/05 02:14:12;;;;;;;11.70;8.43;;;;;;;14.83;100.00;95053.09;5069229;28;20226;-44
2023/06/05 02:16:40;;;;;;;11.10;8.40;;;;;;;14.78;100.00;95051.00;5068997;28;20666;-45
2023/06/05 02:19:10;;;;;;;16.90;9.57;;;;;;;14.82;100.00;95054.06;5068952;28;20191;-44
2023/06/05 02:21:38;;;;;;;9.33;8.43;;;;;;;14.79;100.00;95055.16;5068175;28;20202;-45
2023/06/05 02:24:06;;;;;;;11.07;9.90;;;;;;;14.75;100.00;95046.94;5069315;28;20194;-43
2023/06/05 02:26:33;;;;;;;9.53;8.47;;;;;;;14.70;100.00;95048.38;5069710;28;20200;-46
2023/06/05 02:29:00;;;;;;;12.83;9.10;;;;;;;14.72;100.00;95049.00;5068687;28;20223;-42
2023/06/05 02:31:30;;;;;;;9.87;8.83;;;;;;;14.73;100.00;95048.06;5069414;28;20217;-47
2023/06/05 02:33:57;;;;;;;12.47;9.47;;;;;;;14.71;100.00;95052.56;5069478;28;20225;-46
2023/06/05 02:36:24;;;;;;;10.37;9.10;;;;;;;14.65;100.00;95046.25;5069391;28;20232;-45
2023/06/05 02:38:52;;;;;;;9.63;8.50;;;;;;;14.68;100.00;95055.44;5069160;28;20220;-46
2023/06/05 02:41:19;;;;;;;15.03;9.70;;;;;;;14.65;100.00;95053.97;5068771;28;20201;-46
2023/06/05 02:43:49;;;;;;;10.10;8.63;;;;;;;14.64;100.00;95046.44;5069117;28;20202;-44
2023/06/05 02:46:16;;;;;;;14.53;9.50;;;;;;;14.62;100.00;95056.84;5051541;28;20364;-45
2023/06/05 02:48:44;;;;;;;11.23;8.67;;;;;;;14.59;100.00;95051.19;5068820;28;20186;-45
2023/06/05 02:51:11;;;;;;;9.87;8.83;;;;;;;14.65;100.00;95050.63;5072263;28;20192;-45
2023/06/05 02:53:38;;;;;;;15.10;8.83;;;;;;;14.37;100.00;95004.41;5072750;28;20304;-46
2023/06/05 02:56:06;;;;;;;10.37;8.90;;;;;;;14.62;100.00;95043.19;5069139;28;20558;-46
2023/06/05 02:58:34;;;;;;;10.43;9.40;;;;;;;14.53;100.00;95030.28;5067401;28;20252;-45
2023/06/05 03:01:01;;;;;;;10.20;9.10;;;;;;;14.06;100.00;94974.03;5070347;28;20798;-45
2023/06/05 03:03:30;;;;;;;10.80;9.70;;;;;;;14.61;100.00;95054.44;5072218;28;20190;-45
2023/06/05 03:06:04;;;;;;;10.07;8.80;;;;;;;14.63;100.00;95065.38;5072705;28;20207;-46
2023/06/05 03:08:32;;;;;;;12.93;9.23;;;;;;;14.53;100.00;95042.34;5073245;28;20181;-46
2023/06/05 03:10:59;;;;;;;10.97;9.43;;;;;;;14.70;100.00;95074.13;5072458;28;20183;-44
2023/06/05 03:13:26;;;;;;;15.93;9.00;;;;;;;14.65;100.00;95059.13;5072117;28;20292;-46
2023/06/05 03:15:56;;;;;;;12.37;9.57;;;;;;;14.62;100.00;95053.47;5072733;28;20186;-44
2023/06/05 03:18:24;;;;;;;17.07;8.03;;;;;;;14.73;100.00;95071.25;5074291;28;20205;-46
2023/06/05 03:20:51;;;;;;;13.90;8.90;;;;;;;14.78;100.00;95071.59;5075165;28;20182;-45
2023/06/05 03:23:19;;;;;;;12.40;9.40;;;;;;;14.82;100.00;95072.91;5073008;28;20564;-45
2023/06/05 03:25:46;;;;;;;13.40;8.73;;;;;;;14.85;100.00;95074.34;5072582;28;20803;-46
2023/06/05 03:28:12;;;;;;;11.40;9.30;;;;;;;14.92;100.00;95083.06;5072429;28;20222;-46
2023/06/05 03:30:39;;;;;;;12.53;9.20;;;;;;;14.91;100.00;95074.53;5072365;28;20182;-44
2023/06/05 03:33:07;;;;;;;11.23;9.33;;;;;;;15.02;100.00;95081.97;5072449;28;20194;-45
2023/06/05 03:35:34;;;;;;;15.13;9.83;;;;;;;15.09;100.00;95081.38;5072920;28;20249;-46
2023/06/05 03:38:01;;;;;;;15.47;10.13;;;;;;;15.16;100.00;95082.38;5072740;28;20219;-47
2023/06/05 03:40:30;;;;;;;14.20;9.87;;;;;;;15.25;100.00;95086.59;5074662;28;20178;-45
2023/06/05 03:42:57;;;;;;;15.30;10.30;;;;;;;15.36;100.00;95088.03;5074809;28;20205;-46
2023/06/05 03:45:26;;;;;;;14.40;10.67;;;;;;;15.41;100.00;95089.19;5073690;28;20599;-45
2023/06/05 03:47:53;;;;;;;11.93;10.70;;;;;;;15.52;100.00;95085.50;5072850;28;20194;-44
2023/06/05 03:50:21;;;;;;;12.03;10.43;;;;;;;15.59;100.00;95072.78;5071777;28;20187;-44
2023/06/05 03:52:52;;;;;;;11.47;10.20;;;;;;;15.70;100.00;95080.25;5071778;28;20186;-44
2023/06/05 03:55:19;;;;;;;16.90;10.40;;;;;;;15.82;100.00;95091.06;5072021;28;20246;-44
2023/06/05 03:57:47;;;;;;;14.97;10.83;;;;;;;15.92;100.00;95076.25;5071907;28;20256;-45
2023/06/05 04:00:16;;;;;;;13.93;11.13;;;;;;;16.10;100.00;95082.03;5072289;28;20206;-45
2023/06/05 04:02:43;;;;;;;19.80;12.13;;;;;;;16.17;100.00;95077.84;5071661;28;20220;-46
2023/06/05 04:05:12;;;;;;;15.07;11.80;;;;;;;16.23;100.00;95076.38;5076434;28;20191;-43
2023/06/05 04:07:39;;;;;;;14.80;11.70;;;;;;;16.26;100.00;95070.91;5072059;28;20197;-43
2023/06/05 04:10:07;;;;;;;13.07;11.77;;;;;;;16.50;100.00;95085.56;5071607;28;20198;-43
2023/06/05 04:12:34;;;;;;;13.70;12.30;;;;;;;16.61;100.00;95077.44;5071032;28;20202;-44
2023/06/05 04:15:02;;;;;;;15.53;12.10;;;;;;;16.77;100.00;95089.56;5070813;28;20214;-45
2023/06/05 04:17:29;;;;;;;16.47;12.00;;;;;;;16.86;100.00;95085.97;5071502;28;20194;-45
2023/06/05 04:19:55;;;;;;;18.30;12.67;;;;;;;16.95;100.00;95087.56;5071388;28;20676;-46
2023/06/05 04:22:22;;;;;;;15.47;12.30;;;;;;;17.04;100.00;95090.91;5071803;28;20197;-45
2023/06/05 04:24:49;;;;;;;15.73;11.90;;;;;;;17.09;100.00;95085.25;5070999;28;20190;-44
2023/06/05 04:27:16;;;;;;;16.93;11.90;;;;;;;17.19;100.00;95088.44;5070230;28;20183;-43
2023/06/05 04:29:44;;;;;;;13.13;11.80;;;;;;;17.34;100.00;95089.31;5070988;28;20236;-45
2023/06/05 04:32:16;;;;;;;15.63;12.70;;;;;;;17.47;100.00;95088.78;5068867;28;20203;-44
2023/06/05 04:34:43;;;;;;;16.00;12.37;;;;;;;17.51;100.00;95084.88;5051198;28;20281;-44
2023/06/05 04:37:10;;;;;;;16.40;12.70;;;;;;;17.55;100.00;95083.56;5066957;28;20248;-43
2023/06/05 04:39:37;;;;;;;17.63;13.20;;;;;;;17.52;100.00;95079.53;5069754;28;22011;-43
2023/06/05 04:42:04;;;;;;;19.57;14.13;;;;;;;17.49;100.00;95084.25;5069343;28;20229;-42
2023/06/05 04:44:31;;;;;;;15.83;12.73;;;;;;;17.47;100.00;95081.81;5069502;28;20191;-42
2023/06/05 04:46:58;;;;;;;16.00;13.00;;;;;;;17.48;100.00;95082.63;5070233;28;20672;-42
2023/06/05 04:49:28;;;;;;;14.53;13.13;;;;;;;17.56;100.00;95098.91;5070411;28;20612;-42
2023/06/05 04:51:56;;;;;;;17.13;13.00;;;;;;;17.69;100.00;95093.16;5069527;28;20579;-44
2023/06/05 04:54:23;;;;;;;19.80;13.87;;;;;;;17.74;100.00;95088.31;5070510;28;20288;-43
2023/06/05 04:56:50;;;;;;;16.40;14.60;;;;;;;17.88;100.00;95091.16;5068900;28;20248;-43
2023/06/05 04:59:17;;;;;;;19.87;14.43;;;;;;;18.11;100.00;95101.50;5068846;28;20255;-42
2023/06/05 05:01:44;;;;;;;17.43;15.50;;;;;;;18.41;99.25;95092.81;5068815;28;20198;-42
2023/06/05 05:04:11;;;;;;;17.97;16.07;;;;;;;18.69;96.69;95092.22;5069498;28;20209;-45
2023/06/05 05:06:40;;;;;;;18.40;15.00;;;;;;;19.02;95.27;95095.28;5069340;28;20736;-44
2023/06/05 05:09:08;;;;;;;17.00;14.83;;;;;;;19.31;93.03;95091.88;5069418;28;20201;-45
2023/06/05 05:11:35;;;;;;;17.47;14.43;;;;;;;19.42;91.91;95055.06;5068901;28;20198;-45
2023/06/05 05:14:02;;;;;;;17.37;15.50;;;;;;;19.95;90.46;95088.59;5067955;28;20247;-45
2023/06/05 05:16:29;;;;;;;17.50;14.10;;;;;;;20.17;87.83;95097.16;5069235;28;20198;-43
2023/06/05 05:18:56;;;;;;;16.02;13.50;;;;;;;20.51;87.67;95099.06;5069522;28;20306;-46
2023/06/05 05:21:23;;;;;;;19.08;14.32;;;;;;;20.91;85.97;95094.91;5069597;28;20187;-43
2023/06/05 05:23:51;;;;;;;16.70;13.68;;;;;;;21.46;84.82;95090.59;5068748;28;20202;-46
2023/06/05 05:26:18;;;;;;;20.50;13.20;;;;;;;21.88;82.29;95086.06;5069259;28;20198;-46
2023/06/05 05:28:45;;;;;;;15.10;13.13;;;;;;;22.12;81.06;95097.78;5068559;28;20225;-44
2023/06/05 05:31:12;;;;;;;13.98;11.82;;;;;;;22.36;79.38;95095.56;5069587;28;20202;-46
2023/06/05 05:33:39;;;;;;;12.15;10.88;;;;;;;22.62;76.23;95089.53;5069771;28;20231;-46
2023/06/05 05:36:05;;;;;;;12.45;10.75;;;;;;;22.82;76.58;95092.13;5067980;28;20225;-46
2023/06/05 05:38:32;;;;;;;12.70;11.48;;;;;;;22.96;75.29;95101.53;5068928;28;20210;-44
2023/06/05 05:41:01;;;;;;;14.88;11.15;;;;;;;23.17;75.52;95097.88;5069013;28;20460;-45
2023/06/05 05:43:28;;;;;;;19.35;11.63;;;;;;;23.19;73.20;95093.28;5068505;28;20209;-46
2023/06/05 05:45:56;;;;;;;14.70;11.85;;;;;;;23.12;72.66;95090.69;5068806;28;20198;-46
2023/06/05 05:48:23;;;;;;;15.80;11.55;;;;;;;23.10;73.74;95086.66;5068286;28;20198;-45
2023/06/05 05:50:50;;;;;;;15.50;11.82;;;;;;;23.13;73.96;95081.84;5068957;28;20210;-46
2023/06/05 05:53:17;;;;;;;17.38;11.57;;;;;;;23.16;74.35;95088.47;5068713;28;20190;-46
2023/06/05 05:55:43;;;;;;;15.80;11.20;;;;;;;23.23;74.16;95081.41;5068486;28;20283;-46
2023/06/05 05:58:12;;;;;;;13.45;11.27;;;;;;;23.33;73.15;95079.16;5068312;28;20194;-46
2023/06/05 06:00:38;;;;;;;11.70;10.43;;;;;;;23.40;72.95;95081.72;5068277;28;20709;-44
2023/06/05 06:03:07;;;;;;;16.35;10.48;;;;;;;23.39;71.94;95077.53;5068862;28;20742;-47
2023/06/05 06:05:34;;;;;;;14.13;9.38;;;;;;;23.51;70.75;95084.50;5068727;28;20191;-45
2023/06/05 06:08:01;;;;;;;12.90;9.20;;;;;;;23.65;70.42;95079.22;5070097;28;20184;-44
2023/06/05 06:10:28;;;;;;;11.93;9.35;;;;;;;23.74;69.93;95080.59;5069149;28;20194;-45
2023/06/05 06:12:56;;;;;;;10.15;9.10;;;;;;;23.70;69.52;95076.78;5069452;28;20182;-45
2023/06/05 06:15:24;;;;;;;10.73;9.02;;;;;;;23.52;69.60;95080.06;5069255;28;20210;-44
2023/06/05 06:17:51;;;;;;;15.35;9.50;;;;;;;23.43;70.73;95074.28;5067341;28;20658;-44
2023/06/05 06:20:18;;;;;;;12.30;9.68;;;;;;;23.58;70.94;95086.28;5067942;28;20645;-45
2023/06/05 06:22:45;;;;;;;10.57;9.48;;;;;;;23.69;70.97;95077.81;5068660;28;20205;-45
2023/06/05 06:25:14;;;;;;;11.38;10.23;;;;;;;23.75;71.12;95077.78;5068052;28;20205;-46
2023/06/05 06:27:41;;;;;;;10.75;9.68;;;;;;;23.80;69.74;95073.75;5067964;28;20281;-44
2023/06/05 06:30:10;;;;;;;11.00;9.82;;;;;;;23.67;70.09;95077.22;5068090;28;20198;-45
2023/06/05 06:32:38;;;;;;;11.00;9.60;;;;;;;23.51;70.67;95075.88;5064307;28;20198;-46
2023/06/05 06:35:06;;;;;;;11.43;10.00;;;;;;;23.38;71.10;95078.53;5066966;28;20604;-44
2023/06/05 06:37:33;;;;;;;10.52;9.52;;;;;;;23.24;71.67;95069.97;5069962;28;20209;-44
2023/06/05 06:40:00;;;;;;;10.95;9.48;;;;;;;23.08;72.45;95068.59;5070334;28;20246;-44
2023/06/05 06:42:27;;;;;;;11.43;10.25;;;;;;;23.00;72.74;95064.41;5069786;28;20193;-45
2023/06/05 06:44:55;;;;;;;11.40;10.23;;;;;;;22.91;71.60;95049.19;5069408;28;20901;-45
2023/06/05 06:47:22;;;;;;;10.77;8.90;;;;;;;22.94;72.11;95065.25;5069291;28;20694;-44
2023/06/05 06:49:52;;;;;;;13.20;10.05;;;;;;;22.94;72.76;95060.03;5069402;28;20309;-46
2023/06/05 06:52:20;;;;;;;11.32;9.93;;;;;;;23.03;72.10;95058.78;5069704;28;20657;-46
2023/06/05 06:54:47;;;;;;;13.43;10.32;;;;;;;23.14;71.42;95067.78;5069961;28;20229;-46
2023/06/05 06:57:14;;;;;;;11.27;10.07;;;;;;;23.23;70.98;95063.94;5065911;28;20873;-45
2023/06/05 06:59:41;;;;;;;11.82;10.63;;;;;;;23.45;70.14;95067.06;5070385;28;20190;-45
2023/06/05 07:02:13;;;;;;;12.15;10.05;;;;;;;23.76;69.67;95057.69;5071126;28;20202;-47
2023/06/05 07:04:42;;;;;;;13.85;9.73;;;;;;;24.04;68.92;95054.66;5069384;28;20690;-46
2023/06/05 07:07:12;;;;;;;12.07;10.50;;;;;;;24.21;67.94;95062.78;5073069;28;20182;-46
2023/06/05 07:09:39;;;;;;;12.25;11.02;;;;;;;24.22;67.19;95048.69;5072698;28;20201;-45
2023/06/05 07:12:06;;;;;;;13.85;10.55;;;;;;;24.37;65.76;95059.69;5075043;28;20213;-46
2023/06/05 07:14:34;;;;;;;10.90;9.90;;;;;;;24.39;66.12;95065.47;5075003;28;20198;-47
2023/06/05 07:17:01;;;;;;;11.38;10.15;;;;;;;24.48;65.72;95058.16;5070115;28;20198;-44
2023/06/05 07:19:29;;;;;;;13.45;11.18;;;;;;;24.51;65.58;95063.75;5072043;28;20632;-43
2023/06/05 07:21:57;;;;;;;14.00;11.73;;;;;;;24.59;64.90;95048.81;5071583;28;20198;-45
2023/06/05 07:24:25;;;;;;;14.88;12.52;;;;;;;24.66;64.64;95052.97;5072115;28;20285;-43
2023/06/05 07:26:53;;;;;;;14.05;12.05;;;;;;;24.73;65.19;95058.13;5072049;28;20198;-44
2023/06/05 07:29:20;;;;;;;16.30;11.23;;;;;;;24.80;64.79;95058.06;5071332;28;20286;-44
2023/06/05 07:31:48;;;;;;;12.95;11.30;;;;;;;24.87;64.07;95062.22;5072243;28;20183;-45
2023/06/05 07:34:16;;;;;;;14.57;13.00;;;;;;;24.82;64.24;95063.88;5071559;28;20194;-46
2023/06/05 07:36:45;;;;;;;14.82;13.23;;;;;;;24.74;63.89;95064.94;5071724;28;20202;-44
2023/06/05 07:39:12;;;;;;;14.13;12.60;;;;;;;24.61;64.67;95063.28;5071012;28;20879;-44
2023/06/05 07:41:40;;;;;;;15.95;11.85;;;;;;;24.59;65.11;95073.16;5071562;28;20191;-44
2023/06/05 07:44:09;;;;;;;13.75;11.30;;;;;;;24.57;64.31;95072.59;5071090;28;20197;-46
2023/06/05 07:46:36;;;;;;;12.38;11.10;;;;;;;24.67;64.40;95080.72;5069174;28;20186;-47
2023/06/05 07:49:03;;;;;;;17.83;12.77;;;;;;;24.70;64.06;95084.75;5073884;28;20271;-45
2023/06/05 07:51:35;;;;;;;13.80;12.18;;;;;;;24.72;64.05;95083.50;5073832;28;20194;-45
2023/06/05 07:54:03;;;;;;;14.75;11.68;;;;;;;24.75;64.34;95087.50;5070547;28;20194;-45
2023/06/05 07:56:31;;;;;;;14.90;12.77;;;;;;;24.71;64.75;95083.72;5071252;28;20198;-45
2023/06/05 07:58:59;;;;;;;16.85;11.80;;;;;;;24.73;64.24;95072.00;5070988;28;20182;-46
2023/06/05 08:01:27;;;;;;;19.92;12.57;;;;;;;24.86;63.66;95078.94;5071361;28;20355;-44
2023/06/05 08:03:54;;;;;;;16.48;13.25;;;;;;;24.81;63.94;95083.22;5070674;28;20198;-44
2023/06/05 08:06:21;;;;;;;16.75;12.90;;;;;;;24.89;63.86;95075.09;5071436;28;20194;-46
2023/06/05 08:08:47;;;;;;;13.60;10.93;;;;;;;24.93;64.07;95078.88;5070782;28;20550;-46
2023/06/05 08:11:14;;;;;;;14.18;11.85;;;;;;;25.01;62.79;95087.22;5072513;28;20542;-45
2023/06/05 08:13:41;;;;;;;15.85;12.10;;;;;;;25.11;62.91;95085.94;5072564;28;20201;-47
2023/06/05 08:16:10;;;;;;;13.88;11.23;;;;;;;25.13;63.59;95087.34;5070170;28;20222;-46
2023/06/05 08:18:37;;;;;;;12.10;10.75;;;;;;;25.17;63.16;95080.66;5070330;28;20215;-44
2023/06/05 08:21:04;;;;;;;13.68;11.88;;;;;;;25.22;62.65;95080.78;5070651;28;20182;-46
2023/06/05 08:23:31;;;;;;;12.45;11.00;;;;;;;25.23;62.60;95081.59;5070588;28;20201;-44
2023/06/05 08:25:58;;;;;;;14.35;11.93;;;;;;;25.08;62.79;95068.03;5069977;28;20293;-46
2023/06/05 08:28:24;;;;;;;12.05;10.25;;;;;;;25.15;61.53;95077.44;5069781;28;20225;-45
2023/06/05 08:30:52;;;;;;;13.30;11.88;;;;;;;25.20;62.21;95095.91;5070542;28;20214;-45
2023/06/05 08:33:20;;;;;;;15.15;11.25;;;;;;;24.97;61.96;95064.34;5070419;28;20193;-46
2023/06/05 08:35:47;;;;;;;12.13;10.55;;;;;;;25.05;61.95;95089.44;5070146;28;20233;-48
2023/06/05 08:38:14;;;;;;;15.25;10.52;;;;;;;25.05;62.54;95098.06;5070581;28;20187;-47
2023/06/05 08:40:48;;;;;;;14.02;11.50;;;;;;;24.97;63.66;95083.44;5070176;28;20267;-45
2023/06/05 08:43:15;;;;;;;17.65;12.18;;;;;;;25.05;62.54;95095.47;5070848;28;20190;-45
2023/06/05 08:45:41;;;;;;;14.57;12.10;;;;;;;24.95;62.66;95095.13;5070047;28;20197;-45
2023/06/05 08:48:14;;;;;;;11.88;10.60;;;;;;;24.84;63.82;95099.28;5072649;28;20214;-45
2023/06/05 08:50:45;;;;;;;15.57;11.75;;;;;;;24.82;63.31;95092.66;5065496;28;20549;-44
2023/06/05 08:53:14;;;;;;;15.02;10.48;;;;;;;24.84;63.31;95096.66;5067751;28;20198;-44
2023/06/05 08:55:41;;;;;;;13.95;11.80;;;;;;;24.77;63.17;95090.69;5067484;28;20210;-44
2023/06/05 08:58:08;;;;;;;13.63;11.30;;;;;;;24.80;63.29;95098.13;5065051;28;20217;-44
2023/06/05 09:00:35;;;;;;;14.55;11.55;;;;;;;24.74;63.50;95091.94;5066927;28;20193;-47
2023/06/05 09:03:01;;;;;;;15.63;12.63;;;;;;;24.79;63.19;95101.75;5067266;28;20582;-45
2023/06/05 09:05:28;;;;;;;12.70;11.38;;;;;;;24.73;62.60;95097.38;5066785;28;20591;-44
2023/06/05 09:07:57;;;;;;;15.55;11.18;;;;;;;24.57;63.49;95100.53;5067140;28;20673;-45
2023/06/05 09:10:25;;;;;;;16.38;10.77;;;;;;;24.50;63.50;95103.22;5067370;28;20205;-44
2023/06/05 09:12:57;;;;;;;15.18;10.85;;;;;;;24.37;63.79;95103.28;5066884;28;20214;-44
2023/06/05 09:15:26;;;;;;;12.77;11.00;;;;;;;24.28;64.39;95102.75;5066600;28;20282;-44
2023/06/05 09:18:08;;;;;;;17.58;12.10;;;;;;;24.13;64.72;95092.59;5066252;28;20232;-44
2023/06/05 09:20:35;;;;;;;14.85;11.27;;;;;;;24.20;65.56;95101.19;5066743;28;20202;-45
2023/06/05 09:23:06;;;;;;;14.63;10.57;;;;;;;24.21;65.09;95104.59;5064160;28;20296;-44
2023/06/05 09:25:47;;;;;;;20.40;12.20;;;;;;;24.21;65.45;95104.59;5066830;28;20216;-44
2023/06/05 09:28:16;;;;;;;14.52;11.23;;;;;;;24.24;65.20;95098.97;5065786;28;20227;-45
2023/06/05 09:30:58;;;;;;;12.93;11.00;;;;;;;24.28;64.75;95102.75;5066040;28;20222;-43
2023/06/05 09:33:27;;;;;;;12.32;10.70;;;;;;;24.28;64.44;95102.75;5065374;28;20194;-46
2023/06/05 09:36:08;;;;;;;13.18;9.93;;;;;;;24.38;63.87;95104.91;5066236;28;20225;-44
2023/06/05 09:38:38;;;;;;;12.30;10.55;;;;;;;24.44;63.79;95096.25;5066038;28;20263;-44
2023/06/05 09:41:06;;;;;;;12.93;10.18;;;;;;;24.57;64.04;95100.53;5066026;28;20252;-46
2023/06/05 09:43:33;;;;;;;14.10;10.35;;;;;;;24.61;63.83;95094.69;5066594;28;20198;-45
2023/06/05 09:46:06;;;;;;;10.65;9.23;;;;;;;24.64;63.46;95090.81;5066118;28;20191;-44
2023/06/05 09:48:33;;;;;;;18.42;11.20;;;;;;;24.62;63.53;95090.25;5065993;28;20213;-44
2023/06/05 09:51:09;;;;;;;15.10;10.95;;;;;;;24.58;64.19;95083.84;5066045;28;20748;-45
2023/06/05 09:53:43;;;;;;;14.52;10.68;;;;;;;24.52;64.03;95088.09;5063802;28;20185;-44
2023/06/05 09:56:12;;;;;;;14.10;10.73;;;;;;;24.38;65.30;95097.06;5065286;28;20230;-43
2023/06/05 09:58:39;;;;;;;14.10;10.27;;;;;;;24.18;65.19;95084.94;5068757;28;20661;-42
2023/06/05 10:01:09;;;;;;;16.25;11.98;;;;;;;23.98;66.54;95076.44;5068536;28;20894;-42
2023/06/05 10:03:38;;;;;;;17.85;10.98;;;;;;;23.41;67.23;95005.03;5068252;28;20198;-44
2023/06/05 10:06:07;;;;;;;14.40;10.75;;;;;;;23.83;68.05;95081.94;5068406;28;20551;-44
2023/06/05 10:08:34;;;;;;;11.90;10.02;;;;;;;23.75;68.17;95071.75;5068742;28;20194;-44
2023/06/05 10:11:04;;;;;;;15.18;10.18;;;;;;;23.62;69.20;95080.44;5068312;28;20546;-42
2023/06/05 10:13:32;;;;;;;14.20;10.60;;;;;;;23.59;68.72;95074.81;5070484;28;20190;-43
2023/06/05 10:16:00;;;;;;;12.15;10.30;;;;;;;23.58;68.86;95076.66;5066370;28;20217;-42
2023/06/05 10:18:27;;;;;;;13.52;9.88;;;;;;;23.60;68.71;95074.59;5068869;28;20194;-43
2023/06/05 10:20:55;;;;;;;12.07;9.30;;;;;;;23.58;68.10;95071.41;5068637;28;20202;-42
2023/06/05 10:23:23;;;;;;;12.05;9.82;;;;;;;23.65;68.51;95071.41;5068778;28;20201;-43
2023/06/05 10:25:51;;;;;;;14.30;10.68;;;;;;;23.73;68.87;95071.94;5067798;28;20206;-43
2023/06/05 10:28:36;;;;;;;15.13;10.52;;;;;;;23.74;68.57;95065.72;5065421;28;20230;-44
2023/06/05 10:31:26;;;;;;;14.98;11.80;;;;;;;23.86;68.96;95076.28;5068369;28;20197;-42
2023/06/05 10:34:08;;;;;;;13.02;10.00;;;;;;;23.91;68.83;95068.63;5068521;28;20259;-43
2023/06/05 10:36:50;;;;;;;12.63;10.45;;;;;;;24.02;68.39;95067.16;5068187;28;20229;-45
2023/06/05 10:39:18;;;;;;;11.07;9.65;;;;;;;24.20;67.95;95058.56;5066788;28;20182;-42
2023/06/05 10:41:52;;;;;;;13.95;9.45;;;;;;;24.25;67.14;95063.97;5068004;28;20645;-43
2023/06/05 10:44:39;;;;;;;11.48;9.63;;;;;;;24.25;66.74;95061.34;5068454;28;20764;-43
2023/06/05 10:47:53;;;;;;;11.95;9.00;;;;;;;24.23;66.01;95053.72;5068296;28;20209;-42
2023/06/05 10:50:30;;;;;;;10.45;8.48;;;;;;;24.21;65.34;95023.56;5068568;28;20273;-43
2023/06/05 10:52:57;;;;;;;8.85;7.63;;;;;;;24.47;65.11;95052.13;5068233;28;20202;-43
2023/06/05 10:55:26;;;;;;;10.15;7.35;;;;;;;24.42;64.58;95049.38;5068301;28;20202;-43
2023/06/05 10:58:13;;;;;;;9.38;7.95;;;;;;;24.42;65.13;95051.97;5068008;28;20230;-44
2023/06/05 11:01:19;;;;;;;10.02;8.40;;;;;;;24.31;64.54;95038.78;5067991;28;20709;-44
2023/06/05 11:03:58;;;;;;;10.00;7.55;;;;;;;24.20;64.60;95048.13;5066767;28;20221;-44
2023/06/05 11:06:25;;;;;;;9.60;7.43;;;;;;;24.01;64.87;95011.50;5067392;28;20182;-43
2023/06/05 11:09:12;;;;;;;9.90;7.85;;;;;;;24.16;64.92;95037.28;5067809;28;20692;-43
2023/06/05 11:11:58;;;;;;;13.65;7.78;;;;;;;24.20;64.70;95033.25;5067515;28;20190;-44
2023/06/05 11:14:25;;;;;;;7.88;6.13;;;;;;;24.14;63.11;95035.94;5068237;28;20198;-44
2023/06/05 11:16:52;;;;;;;7.70;6.80;;;;;;;24.10;63.94;95024.28;5067656;28;20812;-44
2023/06/05 11:19:39;;;;;;;6.90;5.85;;;;;;;24.16;61.42;95028.66;5068425;28;20202;-43
2023/06/05 11:22:08;;;;;;;6.35;5.53;;;;;;;24.09;61.00;95009.59;5070714;28;20186;-43
2023/06/05 11:24:36;;;;;;;6.47;5.70;;;;;;;24.20;60.46;95024.59;5072648;28;20263;-43
2023/06/05 11:27:04;;;;;;;9.95;5.40;;;;;;;24.24;60.97;95015.31;5072177;28;20349;-43